METAR Data
IDs: Format: Raw Decoded Include TAF

Data at: 0205 UTC 01 Mar 2021

METAR for:KSPB (Scappoose Ind Airpar, OR, US)
Text:KSPB 010153Z AUTO 30003KT 10SM CLR 11/03 A3020 RMK AO2 SLP227 T01060033
Temperature: 10.6°C ( 51°F)
Dewpoint: 3.3°C ( 38°F) [RH = 61%]
Pressure (altimeter):30.20 inches Hg (1022.8 mb) [Sea level pressure: 1022.7 mb]
Winds:from the WNW (300 degrees) at 3 MPH (3 knots; 1.5 m/s)
Visibility:10 or more sm (16+ km)
Ceiling:at least 12,000 feet AGL
Clouds:sky clear below 12,000 feet AGL
QC Flag:automated observation with no human augmentation